44.1°F
Current conditions from King Hill
Updated every 5 minutes
 
  Thursday April 24, 2014

Station Historical Data
Daily Summary for March 31, 2012 Units:  English    Metric   Both
« Previous Day
Next Day »
Daily Weekly Monthly Yearly Custom
  High: Low: Average:
Temperature: 47.5 °F 26.2 °F 35.8 °F
Dew Point: 22.4 °F 15.7 °F 19.5 °F
Humidity: 71% 30% 53%
Wind Speed: 8.0mph 0.0mph 2.8mph
Wind Gust: 16.0mph - -
Wind- - SW
Pressure: 30.02 in 29.86 in -
Precipitation: 0.00 in    
Historical Graphs
 
 
Tabular Data for March 31, 2012
Time Temperature Dew Point Pressure Wind Wind Speed Wind Gust Humidity Daily Rainfall
00:05 27.9 °F 18.4 °F 30.02 in Calm     67% 0.00 in
00:14 27.6 °F 18.1 °F 30.02 in Calm     67% 0.00 in
00:19 27.4 °F 18.2 °F 30.02 in Calm     68% 0.00 in
00:24 27.3 °F 18.1 °F 30.02 in Calm     68% 0.00 in
00:29 27.2 °F 18.7 °F 30.02 in Calm     70% 0.00 in
00:34 27.0 °F 18.5 °F 30.02 in Calm     70% 0.00 in
00:39 26.7 °F 17.9 °F 30.02 in Calm     69% 0.00 in
00:49 26.5 °F 17.7 °F 30.01 in Calm     69% 0.00 in
00:54 26.3 °F 18.2 °F 30.01 in Calm     71% 0.00 in
00:59 26.2 °F 18.1 °F 30.01 in Calm     71% 0.00 in
01:04 26.3 °F 17.5 °F 30.01 in Calm     69% 0.00 in
01:09 26.4 °F 17.3 °F 30.01 in Calm     68% 0.00 in
01:14 26.5 °F 17.4 °F 30.01 in Calm     68% 0.00 in
01:19 26.8 °F 18.0 °F 30.01 in Calm     69% 0.00 in
01:24 27.2 °F 18.4 °F 30.01 in Calm     69% 0.00 in
01:30 27.4 °F 19.2 °F 30.01 in Calm     71% 0.00 in
01:40 27.4 °F 18.2 °F 30.02 in Calm     68% 0.00 in
01:49 27.7 °F 19.2 °F 30.01 in Calm     70% 0.00 in
01:54 27.8 °F 19.0 °F 30.02 in Calm     69% 0.00 in
02:04 28.1 °F 18.9 °F 30.01 in Calm     68% 0.00 in
02:09 27.9 °F 19.4 °F 30.01 in Calm     70% 0.00 in
02:14 27.7 °F 19.5 °F 30.01 in Calm     71% 0.00 in
02:19 27.5 °F 19.0 °F 30.01 in Calm     70% 0.00 in
02:24 27.6 °F 19.1 °F 30.01 in Calm     70% 0.00 in
02:29 27.7 °F 19.5 °F 30.00 in Calm     71% 0.00 in
02:34 27.9 °F 18.4 °F 30.00 in Calm     67% 0.00 in
02:39 28.1 °F 19.6 °F 30.00 in Calm     70% 0.00 in
02:44 28.1 °F 19.9 °F 30.00 in Calm   2.0 mph 71% 0.00 in
02:54 28.4 °F 18.8 °F 30.00 in Calm   1.0 mph 67% 0.00 in
02:59 28.7 °F 18.8 °F 30.00 in ENE 1.0 mph 3.0 mph 66% 0.00 in
03:04 28.9 °F 18.3 °F 30.00 in ENE 1.0 mph 4.0 mph 64% 0.00 in
03:09 29.0 °F 18.7 °F 30.00 in Calm   4.0 mph 65% 0.00 in
03:14 29.0 °F 18.7 °F 30.00 in Calm   4.0 mph 65% 0.00 in
03:19 28.8 °F 18.9 °F 30.00 in Calm     66% 0.00 in
03:24 28.6 °F 19.0 °F 30.00 in Calm     67% 0.00 in
03:29 28.5 °F 19.3 °F 30.00 in Calm     68% 0.00 in
03:34 28.4 °F 18.8 °F 30.00 in Calm     67% 0.00 in
03:39 28.3 °F 19.1 °F 30.00 in Calm     68% 0.00 in
03:44 28.2 °F 19.3 °F 30.00 in Calm     69% 0.00 in
03:54 28.2 °F 19.3 °F 29.99 in Calm     69% 0.00 in
03:59 28.2 °F 19.7 °F 29.99 in Calm     70% 0.00 in
04:04 28.2 °F 19.3 °F 29.99 in Calm   2.0 mph 69% 0.00 in
04:09 28.3 °F 19.4 °F 29.99 in Calm   2.0 mph 69% 0.00 in
04:14 28.3 °F 19.8 °F 29.99 in Calm   1.0 mph 70% 0.00 in
04:19 28.3 °F 19.8 °F 29.99 in Calm     70% 0.00 in
04:24 28.3 °F 19.8 °F 29.99 in ENE 1.0 mph 2.0 mph 70% 0.00 in
04:29 28.4 °F 19.2 °F 29.99 in Calm   4.0 mph 68% 0.00 in
04:34 28.5 °F 19.6 °F 29.99 in Calm   4.0 mph 69% 0.00 in
04:39 28.6 °F 19.4 °F 29.99 in Calm   3.0 mph 68% 0.00 in
04:44 28.7 °F 19.5 °F 29.99 in Calm   2.0 mph 68% 0.00 in
04:49 28.7 °F 19.1 °F 29.98 in Calm   3.0 mph 67% 0.00 in
04:54 28.7 °F 19.1 °F 29.98 in Calm   3.0 mph 67% 0.00 in
04:59 28.7 °F 19.1 °F 29.99 in Calm   4.0 mph 67% 0.00 in
05:04 28.7 °F 19.1 °F 29.98 in Calm   4.0 mph 67% 0.00 in
05:09 28.6 °F 19.0 °F 29.99 in Calm   2.0 mph 67% 0.00 in
05:14 28.6 °F 19.0 °F 29.98 in ENE 1.0 mph 3.0 mph 67% 0.00 in
05:19 28.5 °F 19.3 °F 29.98 in Calm   3.0 mph 68% 0.00 in
05:24 28.5 °F 18.9 °F 29.99 in Calm   4.0 mph 67% 0.00 in
05:29 28.5 °F 18.9 °F 29.98 in Calm   4.0 mph 67% 0.00 in
05:34 28.4 °F 18.8 °F 29.98 in Calm   2.0 mph 67% 0.00 in
05:39 28.5 °F 18.9 °F 29.98 in ENE 1.0 mph 2.0 mph 67% 0.00 in
05:49 28.8 °F 18.9 °F 29.98 in ENE 1.0 mph 4.0 mph 66% 0.00 in
05:59 29.0 °F 18.3 °F 29.98 in ENE 2.0 mph 4.0 mph 64% 0.00 in
06:04 29.2 °F 18.5 °F 29.98 in ENE 1.0 mph 4.0 mph 64% 0.00 in
06:09 29.2 °F 18.2 °F 29.98 in Calm   3.0 mph 63% 0.00 in
06:14 29.2 °F 18.5 °F 29.98 in Calm   1.0 mph 64% 0.00 in
06:19 29.2 °F 18.2 °F 29.98 in Calm   2.0 mph 63% 0.00 in
06:24 29.2 °F 18.2 °F 29.98 in Calm   2.0 mph 63% 0.00 in
06:29 29.3 °F 18.3 °F 29.98 in Calm   3.0 mph 63% 0.00 in
06:34 29.4 °F 18.0 °F 29.99 in Calm   3.0 mph 62% 0.00 in
06:39 29.6 °F 18.2 °F 29.99 in ENE 1.0 mph 3.0 mph 62% 0.00 in
06:44 29.7 °F 18.3 °F 29.98 in Calm   3.0 mph 62% 0.00 in
06:49 29.7 °F 18.3 °F 29.99 in Calm   3.0 mph 62% 0.00 in
06:54 29.8 °F 18.4 °F 29.98 in Calm   3.0 mph 62% 0.00 in
06:59 29.8 °F 18.0 °F 29.99 in Calm   3.0 mph 61% 0.00 in
07:04 29.9 °F 18.5 °F 29.99 in Calm   2.0 mph 62% 0.00 in
07:09 30.0 °F 18.2 °F 29.99 in Calm   3.0 mph 61% 0.00 in
07:14 30.1 °F 17.9 °F 29.99 in Calm   3.0 mph 60% 0.00 in
07:19 30.2 °F 18.0 °F 29.99 in Calm   1.0 mph 60% 0.00 in
07:24 30.3 °F 18.1 °F 29.99 in Calm     60% 0.00 in
07:29 30.4 °F 17.8 °F 29.99 in Calm     59% 0.00 in
07:34 30.4 °F 18.2 °F 29.99 in Calm     60% 0.00 in
07:39 30.5 °F 18.3 °F 29.99 in Calm     60% 0.00 in
07:44 30.5 °F 18.3 °F 29.99 in Calm   1.0 mph 60% 0.00 in
07:49 30.6 °F 18.4 °F 29.99 in Calm   1.0 mph 60% 0.00 in
07:54 30.6 °F 18.4 °F 29.99 in ENE 1.0 mph 3.0 mph 60% 0.00 in
07:59 30.7 °F 18.5 °F 29.99 in Calm   3.0 mph 60% 0.00 in
08:04 30.8 °F 18.9 °F 29.99 in Calm   3.0 mph 61% 0.00 in
08:09 31.0 °F 18.7 °F 29.99 in ENE 1.0 mph 3.0 mph 60% 0.00 in
08:14 31.0 °F 18.7 °F 29.99 in Calm   2.0 mph 60% 0.00 in
08:19 31.1 °F 18.8 °F 29.99 in Calm   2.0 mph 60% 0.00 in
08:24 31.2 °F 18.9 °F 29.99 in Calm   3.0 mph 60% 0.00 in
08:34 31.6 °F 18.9 °F 29.99 in ENE 1.0 mph 4.0 mph 59% 0.00 in
08:39 31.9 °F 18.8 °F 29.99 in ENE 1.0 mph 4.0 mph 58% 0.00 in
08:44 32.2 °F 19.1 °F 29.99 in Calm   3.0 mph 58% 0.00 in
08:49 32.4 °F 18.9 °F 29.99 in Calm   3.0 mph 57% 0.00 in
08:54 32.7 °F 18.7 °F 29.99 in Calm   1.0 mph 56% 0.00 in
08:59 33.2 °F 19.2 °F 29.98 in Calm     56% 0.00 in
09:04 33.8 °F 19.3 °F 29.98 in Calm     55% 0.00 in
09:09 34.2 °F 18.8 °F 29.99 in Calm     53% 0.00 in
09:14 34.4 °F 18.6 °F 29.99 in Calm   1.0 mph 52% 0.00 in
09:19 34.6 °F 18.8 °F 29.99 in Calm   2.0 mph 52% 0.00 in
09:24 34.7 °F 19.3 °F 29.99 in Calm   2.0 mph 53% 0.00 in
09:29 34.8 °F 18.5 °F 29.99 in Calm     51% 0.00 in
09:34 34.8 °F 18.5 °F 29.99 in Calm     51% 0.00 in
10:29 38.9 °F 19.4 °F 29.98 in Calm   3.0 mph 45% 0.00 in
10:34 38.8 °F 18.2 °F 29.98 in SW 2.0 mph 4.0 mph 43% 0.00 in
10:39 38.9 °F 18.3 °F 29.98 in Calm   4.0 mph 43% 0.00 in
10:44 39.8 °F 19.1 °F 29.98 in Calm   3.0 mph 43% 0.00 in
10:50 40.5 °F 18.6 °F 29.98 in North 1.0 mph 4.0 mph 41% 0.00 in
10:55 40.8 °F 18.9 °F 29.97 in ENE 1.0 mph 4.0 mph 41% 0.00 in
11:05 40.5 °F 19.8 °F 29.97 in NE 1.0 mph 5.0 mph 43% 0.00 in
11:10 40.7 °F 19.9 °F 29.97 in Calm   5.0 mph 43% 0.00 in
11:15 40.8 °F 18.3 °F 29.97 in NW 2.0 mph 5.0 mph 40% 0.00 in
11:20 41.1 °F 19.2 °F 29.97 in NW 3.0 mph 7.0 mph 41% 0.00 in
11:30 42.0 °F 19.4 °F 29.97 in Calm   6.0 mph 40% 0.00 in
11:35 41.8 °F 18.6 °F 29.97 in Calm   5.0 mph 39% 0.00 in
11:40 41.8 °F 17.4 °F 29.97 in SW 1.0 mph 4.0 mph 37% 0.00 in
11:50 41.8 °F 17.4 °F 29.96 in East 3.0 mph 8.0 mph 37% 0.00 in
11:55 42.2 °F 17.8 °F 29.96 in Calm   8.0 mph 37% 0.00 in
12:05 43.6 °F 19.0 °F 29.96 in NW 5.0 mph 8.0 mph 37% 0.00 in
12:10 43.3 °F 16.8 °F 29.96 in NNE 3.0 mph 8.0 mph 34% 0.00 in
12:15 42.9 °F 17.8 °F 29.96 in East 2.0 mph 7.0 mph 36% 0.00 in
12:20 42.9 °F 16.4 °F 29.95 in NE 3.0 mph 8.0 mph 34% 0.00 in
12:25 43.1 °F 17.3 °F 29.95 in ENE 1.0 mph 9.0 mph 35% 0.00 in
12:30 43.3 °F 16.8 °F 29.95 in East 1.0 mph 9.0 mph 34% 0.00 in
12:35 42.8 °F 17.0 °F 29.95 in East 2.0 mph 9.0 mph 35% 0.00 in
12:45 42.7 °F 17.6 °F 29.94 in NNE 2.0 mph 8.0 mph 36% 0.00 in
12:50 43.1 °F 17.3 °F 29.94 in Calm   8.0 mph 35% 0.00 in
13:00 44.9 °F 16.8 °F 29.94 in NW 1.0 mph 9.0 mph 32% 0.00 in
13:10 45.4 °F 17.3 °F 29.93 in NNW 2.0 mph 6.0 mph 32% 0.00 in
13:15 45.3 °F 15.7 °F 29.93 in NW 5.0 mph 7.0 mph 30% 0.00 in
13:20 45.0 °F 17.6 °F 29.92 in ENE 2.0 mph 9.0 mph 33% 0.00 in
13:25 44.8 °F 18.1 °F 29.92 in ENE 1.0 mph 9.0 mph 34% 0.00 in
13:30 45.1 °F 17.0 °F 29.92 in ENE 2.0 mph 8.0 mph 32% 0.00 in
13:35 45.3 °F 16.4 °F 29.92 in NNW 1.0 mph 7.0 mph 31% 0.00 in
13:40 45.1 °F 17.7 °F 29.92 in ESE 2.0 mph 7.0 mph 33% 0.00 in
13:50 45.0 °F 19.0 °F 29.92 in WNW 3.0 mph 6.0 mph 35% 0.00 in
13:55 45.7 °F 22.2 °F 29.91 in North 2.0 mph 6.0 mph 39% 0.00 in
14:00 46.1 °F 21.9 °F 29.91 in WNW 6.0 mph 13.0 mph 38% 0.00 in
14:05 45.9 °F 20.4 °F 29.91 in West 5.0 mph 13.0 mph 36% 0.00 in
14:10 45.6 °F 18.8 °F 29.91 in SW 1.0 mph 12.0 mph 34% 0.00 in
14:15 45.9 °F 21.1 °F 29.91 in WSW 4.0 mph 10.0 mph 37% 0.00 in
14:20 46.1 °F 21.9 °F 29.91 in NW 7.0 mph 10.0 mph 38% 0.00 in
14:30 46.0 °F 22.4 °F 29.90 in NW 6.0 mph 11.0 mph 39% 0.00 in
14:35 45.8 °F 21.0 °F 29.90 in NW 4.0 mph 11.0 mph 37% 0.00 in
14:45 46.5 °F 21.0 °F 29.90 in NNE 1.0 mph 8.0 mph 36% 0.00 in
14:50 46.6 °F 20.4 °F 29.90 in NNW 2.0 mph 7.0 mph 35% 0.00 in
14:55 46.5 °F 21.0 °F 29.90 in WNW 8.0 mph 16.0 mph 36% 0.00 in
15:00 46.0 °F 20.5 °F 29.89 in North 1.0 mph 16.0 mph 36% 0.00 in
15:10 47.2 °F 21.6 °F 29.89 in NW 4.0 mph 11.0 mph 36% 0.00 in
15:15 46.8 °F 21.9 °F 29.89 in NNW 4.0 mph 12.0 mph 37% 0.00 in
15:20 46.7 °F 21.2 °F 29.89 in NW 6.0 mph 12.0 mph 36% 0.00 in
15:25 46.2 °F 21.4 °F 29.88 in NNW 2.0 mph 14.0 mph 37% 0.00 in
15:30 46.9 °F 22.0 °F 29.88 in NNW 6.0 mph 14.0 mph 37% 0.00 in
15:35 46.1 °F 21.3 °F 29.88 in WNW 6.0 mph 11.0 mph 37% 0.00 in
15:40 45.9 °F 21.1 °F 29.88 in WNW 5.0 mph 11.0 mph 37% 0.00 in
15:50 46.0 °F 21.2 °F 29.88 in NW 3.0 mph 10.0 mph 37% 0.00 in
15:55 46.6 °F 21.1 °F 29.88 in NNW 5.0 mph 11.0 mph 36% 0.00 in
16:00 46.8 °F 19.9 °F 29.88 in North 3.0 mph 11.0 mph 34% 0.00 in
16:10 45.9 °F 19.8 °F 29.88 in WNW 7.0 mph 15.0 mph 35% 0.00 in
16:15 45.8 °F 20.4 °F 29.88 in NNW 6.0 mph 15.0 mph 36% 0.00 in
16:20 46.3 °F 20.8 °F 29.88 in WNW 5.0 mph 11.0 mph 36% 0.00 in
16:25 46.4 °F 20.2 °F 29.88 in NNW 6.0 mph 10.0 mph 35% 0.00 in
16:30 46.3 °F 19.5 °F 29.87 in NW 5.0 mph 10.0 mph 34% 0.00 in
16:35 46.5 °F 21.6 °F 29.87 in NW 2.0 mph 11.0 mph 37% 0.00 in
16:40 46.8 °F 21.2 °F 29.87 in NNW 1.0 mph 13.0 mph 36% 0.00 in
16:45 47.0 °F 20.8 °F 29.87 in NW 3.0 mph 13.0 mph 35% 0.00 in
16:50 46.3 °F 20.1 °F 29.87 in NW 5.0 mph 9.0 mph 35% 0.00 in
16:55 46.3 °F 20.1 °F 29.86 in NNW 1.0 mph 9.0 mph 35% 0.00 in
17:00 47.0 °F 20.8 °F 29.86 in Calm   5.0 mph 35% 0.00 in
17:05 47.3 °F 21.0 °F 29.86 in Calm   7.0 mph 35% 0.00 in
17:10 47.5 °F 21.2 °F 29.86 in North 1.0 mph 7.0 mph 35% 0.00 in
17:15 47.1 °F 20.2 °F 29.86 in NW 8.0 mph 11.0 mph 34% 0.00 in
17:20 46.5 °F 21.0 °F 29.87 in NW 3.0 mph 11.0 mph 36% 0.00 in
17:25 46.7 °F 21.2 °F 29.86 in NW 3.0 mph 11.0 mph 36% 0.00 in
17:30 46.4 °F 20.9 °F 29.86 in NNW 4.0 mph 11.0 mph 36% 0.00 in
17:35 46.1 °F 20.6 °F 29.87 in WNW 4.0 mph 11.0 mph 36% 0.00 in
17:40 45.5 °F 20.7 °F 29.86 in NNW 2.0 mph 11.0 mph 37% 0.00 in
17:45 45.7 °F 20.9 °F 29.86 in NNW 3.0 mph 11.0 mph 37% 0.00 in
17:50 45.9 °F 20.4 °F 29.87 in NNW 1.0 mph 8.0 mph 36% 0.00 in
18:00 46.1 °F 20.6 °F 29.87 in NW 4.0 mph 6.0 mph 36% 0.00 in
18:05 46.0 °F 20.5 °F 29.87 in NW 1.0 mph 6.0 mph 36% 0.00 in
18:10 46.1 °F 21.3 °F 29.87 in NW 1.0 mph 6.0 mph 37% 0.00 in
18:15 45.8 °F 20.4 °F 29.87 in NW 3.0 mph 6.0 mph 36% 0.00 in
18:20 45.2 °F 21.1 °F 29.87 in NW 1.0 mph 8.0 mph 38% 0.00 in
18:25 44.8 °F 20.7 °F 29.87 in NW 3.0 mph 9.0 mph 38% 0.00 in
18:30 44.2 °F 20.8 °F 29.87 in NW 4.0 mph 9.0 mph 39% 0.00 in
18:35 43.5 °F 20.2 °F 29.87 in NW 3.0 mph 8.0 mph 39% 0.00 in
18:40 43.0 °F 20.3 °F 29.87 in NW 3.0 mph 10.0 mph 40% 0.00 in
18:45 42.7 °F 20.1 °F 29.87 in NW 3.0 mph 10.0 mph 40% 0.00 in
18:55 41.9 °F 20.5 °F 29.87 in Calm   8.0 mph 42% 0.00 in
19:00 41.6 °F 20.2 °F 29.87 in Calm   5.0 mph 42% 0.00 in
19:05 41.2 °F 20.4 °F 29.87 in NNW 1.0 mph 5.0 mph 43% 0.00 in
19:10 40.5 °F 19.8 °F 29.87 in Calm   5.0 mph 43% 0.00 in
19:15 39.9 °F 19.7 °F 29.88 in Calm   3.0 mph 44% 0.00 in
19:20 39.2 °F 19.6 °F 29.88 in Calm   2.0 mph 45% 0.00 in
19:25 38.6 °F 19.1 °F 29.88 in Calm     45% 0.00 in
19:35 37.8 °F 19.9 °F 29.88 in Calm   2.0 mph 48% 0.00 in
19:40 37.4 °F 20.0 °F 29.88 in Calm   2.0 mph 49% 0.00 in
19:45 37.0 °F 19.6 °F 29.88 in Calm     49% 0.00 in
19:50 36.7 °F 20.7 °F 29.88 in Calm     52% 0.00 in
19:55 36.3 °F 20.4 °F 29.88 in Calm     52% 0.00 in
20:00 36.0 °F 20.5 °F 29.88 in Calm     53% 0.00 in
20:05 35.7 °F 20.2 °F 29.88 in Calm     53% 0.00 in
20:15 34.9 °F 21.2 °F 29.88 in Calm     57% 0.00 in
20:20 34.5 °F 20.0 °F 29.88 in Calm     55% 0.00 in
20:25 34.4 °F 19.9 °F 29.88 in Calm     55% 0.00 in
20:30 34.4 °F 20.7 °F 29.88 in Calm     57% 0.00 in
20:35 34.2 °F 21.0 °F 29.88 in Calm     58% 0.00 in
20:40 34.0 °F 21.6 °F 29.88 in Calm     60% 0.00 in
20:50 33.8 °F 21.0 °F 29.88 in Calm     59% 0.00 in
20:55 33.9 °F 21.1 °F 29.88 in Calm     59% 0.00 in
21:00 33.8 °F 21.8 °F 29.88 in Calm     61% 0.00 in
21:05 33.6 °F 21.2 °F 29.88 in Calm     60% 0.00 in
21:10 33.6 °F 20.8 °F 29.88 in Calm     59% 0.00 in
21:15 34.1 °F 20.9 °F 29.88 in Calm     58% 0.00 in
21:20 34.2 °F 21.4 °F 29.88 in Calm   3.0 mph 59% 0.00 in
21:25 34.1 °F 21.7 °F 29.87 in Calm   3.0 mph 60% 0.00 in
21:30 34.0 °F 22.0 °F 29.87 in Calm     61% 0.00 in
21:35 33.7 °F 21.7 °F 29.87 in Calm     61% 0.00 in
21:40 33.5 °F 21.5 °F 29.87 in Calm     61% 0.00 in
21:45 33.2 °F 21.6 °F 29.87 in Calm     62% 0.00 in
21:50 33.2 °F 21.2 °F 29.87 in Calm     61% 0.00 in
21:55 33.2 °F 21.2 °F 29.87 in Calm   2.0 mph 61% 0.00 in
22:00 33.0 °F 21.4 °F 29.87 in Calm   2.0 mph 62% 0.00 in
22:10 33.1 °F 21.5 °F 29.87 in Calm     62% 0.00 in
22:15 33.2 °F 21.2 °F 29.87 in Calm     61% 0.00 in
22:20 33.3 °F 21.3 °F 29.87 in Calm     61% 0.00 in
22:25 33.0 °F 21.8 °F 29.87 in Calm     63% 0.00 in
22:30 32.3 °F 21.5 °F 29.87 in Calm     64% 0.00 in
22:35 31.8 °F 21.4 °F 29.87 in Calm     65% 0.00 in
22:40 31.7 °F 21.3 °F 29.87 in Calm     65% 0.00 in
22:45 31.6 °F 21.2 °F 29.87 in Calm     65% 0.00 in
22:50 31.3 °F 20.5 °F 29.87 in Calm     64% 0.00 in
22:55 31.0 °F 19.9 °F 29.87 in Calm     63% 0.00 in
23:05 30.9 °F 19.8 °F 29.88 in Calm     63% 0.00 in
23:10 31.4 °F 21.0 °F 29.87 in Calm   1.0 mph 65% 0.00 in
23:15 31.2 °F 20.8 °F 29.87 in Calm   1.0 mph 65% 0.00 in
23:20 30.7 °F 20.0 °F 29.87 in Calm     64% 0.00 in
23:25 30.9 °F 19.8 °F 29.87 in Calm     63% 0.00 in
23:30 31.1 °F 19.6 °F 29.87 in Calm     62% 0.00 in
23:40 31.9 °F 20.7 °F 29.86 in Calm     63% 0.00 in
23:45 32.1 °F 20.5 °F 29.86 in Calm     62% 0.00 in
23:50 31.5 °F 19.2 °F 29.86 in Calm     60% 0.00 in
23:55 31.2 °F 18.9 °F 29.86 in Calm     60% 0.00 in
Westford Weather
Compliments of Weather Underground

 
 
Current Radar Loop:

Copyright © WestfordWeather.net 2007-2014. All rights reserved.